sensor_id;sensor_type;location;lat;lon;timestamp;pressure;altitude;pressure_sealevel;temperature;humidity
72959;BME280;60008;50.826;6.896;2022-12-29T00:01:39;99861.31;;;10.62;100.00
72959;BME280;60008;50.826;6.896;2022-12-29T00:04:24;99862.03;;;10.56;100.00
72959;BME280;60008;50.826;6.896;2022-12-29T00:07:11;99862.75;;;10.50;100.00
72959;BME280;60008;50.826;6.896;2022-12-29T00:09:56;99848.69;;;10.49;100.00
72959;BME280;60008;50.826;6.896;2022-12-29T00:12:41;99841.56;;;10.64;100.00
72959;BME280;60008;50.826;6.896;2022-12-29T00:15:45;99840.84;;;10.70;100.00
72959;BME280;60008;50.826;6.896;2022-12-29T00:18:30;99839.81;;;10.71;100.00
72959;BME280;60008;50.826;6.896;2022-12-29T00:21:17;99832.44;;;10.82;100.00
72959;BME280;60008;50.826;6.896;2022-12-29T00:24:21;99842.00;;;10.97;100.00
72959;BME280;60008;50.826;6.896;2022-12-29T00:30:12;99826.53;;;11.15;100.00
72959;BME280;60008;50.826;6.896;2022-12-29T00:33:17;99815.91;;;11.15;100.00
72959;BME280;60008;50.826;6.896;2022-12-29T00:36:33;99805.00;;;11.25;100.00
72959;BME280;60008;50.826;6.896;2022-12-29T00:39:19;99809.88;;;11.21;100.00
72959;BME280;60008;50.826;6.896;2022-12-29T00:42:23;99803.44;;;11.30;100.00
72959;BME280;60008;50.826;6.896;2022-12-29T00:45:26;99798.06;;;11.45;100.00
72959;BME280;60008;50.826;6.896;2022-12-29T00:48:12;99809.06;;;11.42;100.00
72959;BME280;60008;50.826;6.896;2022-12-29T00:50:58;99805.97;;;11.39;100.00
72959;BME280;60008;50.826;6.896;2022-12-29T00:53:42;99807.59;;;11.61;100.00
72959;BME280;60008;50.826;6.896;2022-12-29T00:56:27;99806.09;;;11.52;100.00
72959;BME280;60008;50.826;6.896;2022-12-29T00:59:13;99811.53;;;11.44;100.00
72959;BME280;60008;50.826;6.896;2022-12-29T01:01:58;99788.72;;;11.49;100.00
72959;BME280;60008;50.826;6.896;2022-12-29T01:04:43;99805.19;;;11.45;100.00
72959;BME280;60008;50.826;6.896;2022-12-29T01:07:28;99804.44;;;11.51;100.00
72959;BME280;60008;50.826;6.896;2022-12-29T01:10:14;99793.66;;;11.52;100.00
72959;BME280;60008;50.826;6.896;2022-12-29T01:12:59;99790.44;;;11.35;100.00
72959;BME280;60008;50.826;6.896;2022-12-29T01:15:52;99802.91;;;11.42;100.00
72959;BME280;60008;50.826;6.896;2022-12-29T01:18:37;99786.00;;;11.64;100.00
72959;BME280;60008;50.826;6.896;2022-12-29T01:21:23;99799.47;;;11.62;100.00
72959;BME280;60008;50.826;6.896;2022-12-29T01:24:08;99796.59;;;11.64;100.00
72959;BME280;60008;50.826;6.896;2022-12-29T01:26:53;99792.34;;;11.84;100.00
72959;BME280;60008;50.826;6.896;2022-12-29T01:29:39;99790.69;;;11.83;100.00
72959;BME280;60008;50.826;6.896;2022-12-29T01:32:24;99793.16;;;11.84;100.00
72959;BME280;60008;50.826;6.896;2022-12-29T01:35:09;99788.91;;;11.90;100.00
72959;BME280;60008;50.826;6.896;2022-12-29T01:37:55;99788.72;;;11.91;100.00
72959;BME280;60008;50.826;6.896;2022-12-29T01:40:45;99792.38;;;11.90;100.00
72959;BME280;60008;50.826;6.896;2022-12-29T01:46:40;99791.38;;;11.91;100.00
72959;BME280;60008;50.826;6.896;2022-12-29T01:49:27;99777.94;;;12.00;100.00
72959;BME280;60008;50.826;6.896;2022-12-29T01:52:14;99786.81;;;11.85;100.00
72959;BME280;60008;50.826;6.896;2022-12-29T01:55:02;99778.84;;;11.85;100.00
72959;BME280;60008;50.826;6.896;2022-12-29T01:57:49;99771.94;;;11.91;100.00
72959;BME280;60008;50.826;6.896;2022-12-29T02:00:37;99756.38;;;11.81;100.00
72959;BME280;60008;50.826;6.896;2022-12-29T02:03:25;99749.75;;;11.71;100.00
72959;BME280;60008;50.826;6.896;2022-12-29T02:06:15;99747.44;;;11.68;100.00
72959;BME280;60008;50.826;6.896;2022-12-29T02:09:03;99743.66;;;11.56;100.00
72959;BME280;60008;50.826;6.896;2022-12-29T02:11:48;99740.25;;;11.62;100.00
72959;BME280;60008;50.826;6.896;2022-12-29T02:14:33;99751.69;;;11.62;100.00
72959;BME280;60008;50.826;6.896;2022-12-29T02:20:33;99745.50;;;11.55;100.00
72959;BME280;60008;50.826;6.896;2022-12-29T02:23:37;99749.72;;;11.50;100.00
72959;BME280;60008;50.826;6.896;2022-12-29T02:30:04;99731.50;;;11.40;100.00
72959;BME280;60008;50.826;6.896;2022-12-29T02:39:26;99748.50;;;11.24;100.00
72959;BME280;60008;50.826;6.896;2022-12-29T02:42:49;99737.94;;;11.31;100.00
72959;BME280;60008;50.826;6.896;2022-12-29T02:45:50;99739.78;;;11.30;100.00
72959;BME280;60008;50.826;6.896;2022-12-29T02:48:52;99733.66;;;11.30;100.00
72959;BME280;60008;50.826;6.896;2022-12-29T02:52:02;99734.56;;;11.22;100.00
72959;BME280;60008;50.826;6.896;2022-12-29T02:54:49;99731.16;;;11.28;100.00
72959;BME280;60008;50.826;6.896;2022-12-29T02:57:34;99740.91;;;11.21;100.00
72959;BME280;60008;50.826;6.896;2022-12-29T03:00:19;99725.69;;;11.30;100.00
72959;BME280;60008;50.826;6.896;2022-12-29T03:03:16;99733.91;;;11.35;100.00
72959;BME280;60008;50.826;6.896;2022-12-29T03:06:23;99723.53;;;11.40;100.00
72959;BME280;60008;50.826;6.896;2022-12-29T03:09:43;99724.66;;;11.31;100.00
72959;BME280;60008;50.826;6.896;2022-12-29T03:12:40;99721.31;;;11.44;100.00
72959;BME280;60008;50.826;6.896;2022-12-29T03:16:01;99710.13;;;11.48;100.00
72959;BME280;60008;50.826;6.896;2022-12-29T03:19:05;99706.09;;;11.31;100.00
72959;BME280;60008;50.826;6.896;2022-12-29T03:21:57;99703.69;;;11.36;100.00
72959;BME280;60008;50.826;6.896;2022-12-29T03:25:15;99691.69;;;11.40;100.00
72959;BME280;60008;50.826;6.896;2022-12-29T03:28:08;99697.63;;;11.42;100.00
72959;BME280;60008;50.826;6.896;2022-12-29T03:30:55;99684.97;;;11.44;100.00
72959;BME280;60008;50.826;6.896;2022-12-29T03:33:43;99681.28;;;11.39;100.00
72959;BME280;60008;50.826;6.896;2022-12-29T03:36:33;99687.72;;;11.29;100.00
72959;BME280;60008;50.826;6.896;2022-12-29T03:39:23;99696.31;;;11.31;100.00
72959;BME280;60008;50.826;6.896;2022-12-29T03:42:12;99692.91;;;11.38;100.00
72959;BME280;60008;50.826;6.896;2022-12-29T03:44:58;99700.47;;;11.41;100.00
72959;BME280;60008;50.826;6.896;2022-12-29T03:47:43;99693.34;;;11.41;100.00
72959;BME280;60008;50.826;6.896;2022-12-29T03:50:28;99675.78;;;11.40;100.00
72959;BME280;60008;50.826;6.896;2022-12-29T03:53:13;99666.16;;;11.39;100.00
72959;BME280;60008;50.826;6.896;2022-12-29T03:55:58;99667.56;;;11.35;100.00
72959;BME280;60008;50.826;6.896;2022-12-29T03:58:43;99662.72;;;11.39;100.00
72959;BME280;60008;50.826;6.896;2022-12-29T04:01:29;99665.84;;;11.49;100.00
72959;BME280;60008;50.826;6.896;2022-12-29T04:04:14;99662.38;;;11.48;100.00
72959;BME280;60008;50.826;6.896;2022-12-29T04:06:59;99653.78;;;11.46;100.00
72959;BME280;60008;50.826;6.896;2022-12-29T04:09:44;99648.19;;;11.62;100.00
72959;BME280;60008;50.826;6.896;2022-12-29T04:12:29;99658.88;;;11.48;100.00
72959;BME280;60008;50.826;6.896;2022-12-29T04:15:14;99665.78;;;11.42;100.00
72959;BME280;60008;50.826;6.896;2022-12-29T04:17:59;99650.84;;;11.34;100.00
72959;BME280;60008;50.826;6.896;2022-12-29T04:20:44;99651.91;;;11.40;100.00
72959;BME280;60008;50.826;6.896;2022-12-29T04:23:44;99636.22;;;11.45;100.00
72959;BME280;60008;50.826;6.896;2022-12-29T04:26:29;99641.09;;;11.42;100.00
72959;BME280;60008;50.826;6.896;2022-12-29T04:29:15;99645.59;;;11.41;100.00
72959;BME280;60008;50.826;6.896;2022-12-29T04:32:00;99638.03;;;11.45;100.00
72959;BME280;60008;50.826;6.896;2022-12-29T04:34:45;99639.22;;;11.35;100.00
72959;BME280;60008;50.826;6.896;2022-12-29T04:37:30;99639.25;;;11.42;100.00
72959;BME280;60008;50.826;6.896;2022-12-29T04:40:15;99633.03;;;11.56;100.00
72959;BME280;60008;50.826;6.896;2022-12-29T04:43:00;99647.44;;;11.47;100.00
72959;BME280;60008;50.826;6.896;2022-12-29T04:45:46;99659.56;;;11.56;100.00
72959;BME280;60008;50.826;6.896;2022-12-29T04:48:31;99665.47;;;11.52;100.00
72959;BME280;60008;50.826;6.896;2022-12-29T04:51:16;99662.66;;;11.60;100.00
72959;BME280;60008;50.826;6.896;2022-12-29T04:54:02;99670.81;;;11.58;100.00
72959;BME280;60008;50.826;6.896;2022-12-29T04:56:47;99666.38;;;11.65;100.00
72959;BME280;60008;50.826;6.896;2022-12-29T04:59:32;99682.22;;;11.52;100.00
72959;BME280;60008;50.826;6.896;2022-12-29T05:02:18;99673.06;;;11.61;100.00
72959;BME280;60008;50.826;6.896;2022-12-29T05:05:03;99665.50;;;11.58;100.00
72959;BME280;60008;50.826;6.896;2022-12-29T05:07:49;99672.00;;;11.56;100.00
72959;BME280;60008;50.826;6.896;2022-12-29T05:10:34;99656.72;;;11.58;100.00
72959;BME280;60008;50.826;6.896;2022-12-29T05:13:19;99668.06;;;11.45;100.00
72959;BME280;60008;50.826;6.896;2022-12-29T05:16:04;99671.16;;;11.49;100.00
72959;BME280;60008;50.826;6.896;2022-12-29T05:18:49;99669.25;;;11.43;100.00
72959;BME280;60008;50.826;6.896;2022-12-29T05:21:35;99686.69;;;11.52;100.00
72959;BME280;60008;50.826;6.896;2022-12-29T05:24:20;99693.00;;;11.51;100.00
72959;BME280;60008;50.826;6.896;2022-12-29T05:27:05;99697.19;;;11.66;100.00
72959;BME280;60008;50.826;6.896;2022-12-29T05:29:50;99698.38;;;11.57;100.00
72959;BME280;60008;50.826;6.896;2022-12-29T05:32:35;99693.47;;;11.61;100.00
72959;BME280;60008;50.826;6.896;2022-12-29T05:35:19;99695.03;;;11.49;100.00
72959;BME280;60008;50.826;6.896;2022-12-29T05:38:04;99704.88;;;11.55;100.00
72959;BME280;60008;50.826;6.896;2022-12-29T05:40:50;99697.03;;;11.68;100.00
72959;BME280;60008;50.826;6.896;2022-12-29T05:43:34;99690.44;;;11.64;100.00
72959;BME280;60008;50.826;6.896;2022-12-29T05:46:20;99696.09;;;11.75;100.00
72959;BME280;60008;50.826;6.896;2022-12-29T05:49:05;99702.59;;;11.73;100.00
72959;BME280;60008;50.826;6.896;2022-12-29T05:51:50;99704.44;;;11.72;100.00
72959;BME280;60008;50.826;6.896;2022-12-29T05:54:36;99703.06;;;11.83;100.00
72959;BME280;60008;50.826;6.896;2022-12-29T05:57:21;99709.56;;;11.74;100.00
72959;BME280;60008;50.826;6.896;2022-12-29T06:00:06;99715.25;;;11.71;100.00
72959;BME280;60008;50.826;6.896;2022-12-29T06:02:52;99714.28;;;11.78;100.00
72959;BME280;60008;50.826;6.896;2022-12-29T06:05:38;99729.38;;;11.78;100.00
72959;BME280;60008;50.826;6.896;2022-12-29T06:08:23;99718.09;;;11.69;100.00
72959;BME280;60008;50.826;6.896;2022-12-29T06:11:08;99713.59;;;11.70;100.00
72959;BME280;60008;50.826;6.896;2022-12-29T06:13:53;99728.03;;;11.67;100.00
72959;BME280;60008;50.826;6.896;2022-12-29T06:16:38;99724.09;;;11.57;100.00
72959;BME280;60008;50.826;6.896;2022-12-29T06:19:23;99734.84;;;11.49;100.00
72959;BME280;60008;50.826;6.896;2022-12-29T06:22:08;99725.72;;;11.36;100.00
72959;BME280;60008;50.826;6.896;2022-12-29T06:24:55;99732.44;;;11.32;100.00
72959;BME280;60008;50.826;6.896;2022-12-29T06:27:49;99722.47;;;11.34;100.00
72959;BME280;60008;50.826;6.896;2022-12-29T06:30:34;99710.63;;;11.37;100.00
72959;BME280;60008;50.826;6.896;2022-12-29T06:33:19;99717.41;;;11.40;100.00
72959;BME280;60008;50.826;6.896;2022-12-29T06:36:04;99721.72;;;11.41;100.00
72959;BME280;60008;50.826;6.896;2022-12-29T06:38:49;99726.06;;;11.48;100.00
72959;BME280;60008;50.826;6.896;2022-12-29T06:41:37;99736.88;;;11.47;100.00
72959;BME280;60008;50.826;6.896;2022-12-29T06:44:22;99743.63;;;11.49;100.00
72959;BME280;60008;50.826;6.896;2022-12-29T06:47:07;99737.28;;;11.50;100.00
72959;BME280;60008;50.826;6.896;2022-12-29T06:49:53;99743.41;;;11.51;100.00
72959;BME280;60008;50.826;6.896;2022-12-29T06:52:37;99743.88;;;11.54;100.00
72959;BME280;60008;50.826;6.896;2022-12-29T06:55:22;99724.84;;;11.51;100.00
72959;BME280;60008;50.826;6.896;2022-12-29T06:58:08;99757.88;;;11.48;100.00
72959;BME280;60008;50.826;6.896;2022-12-29T07:00:53;99741.28;;;11.40;100.00
72959;BME280;60008;50.826;6.896;2022-12-29T07:03:37;99733.91;;;11.35;100.00
72959;BME280;60008;50.826;6.896;2022-12-29T07:06:23;99719.72;;;11.28;100.00
72959;BME280;60008;50.826;6.896;2022-12-29T07:09:08;99754.66;;;11.31;100.00
72959;BME280;60008;50.826;6.896;2022-12-29T07:11:53;99750.44;;;11.37;100.00
72959;BME280;60008;50.826;6.896;2022-12-29T07:14:38;99759.72;;;11.26;100.00
72959;BME280;60008;50.826;6.896;2022-12-29T07:17:27;99759.72;;;11.26;100.00
72959;BME280;60008;50.826;6.896;2022-12-29T07:20:12;99758.38;;;11.16;100.00
72959;BME280;60008;50.826;6.896;2022-12-29T07:22:58;99758.19;;;11.17;100.00
72959;BME280;60008;50.826;6.896;2022-12-29T07:25:43;99782.44;;;11.14;100.00
72959;BME280;60008;50.826;6.896;2022-12-29T07:28:29;99782.44;;;11.14;100.00
72959;BME280;60008;50.826;6.896;2022-12-29T07:31:20;99790.50;;;11.06;100.00
72959;BME280;60008;50.826;6.896;2022-12-29T07:34:05;99786.66;;;11.09;100.00
72959;BME280;60008;50.826;6.896;2022-12-29T07:36:50;99790.69;;;11.05;100.00
72959;BME280;60008;50.826;6.896;2022-12-29T07:39:35;99796.84;;;11.05;100.00
72959;BME280;60008;50.826;6.896;2022-12-29T07:42:20;99799.97;;;10.94;100.00
72959;BME280;60008;50.826;6.896;2022-12-29T07:45:06;99801.59;;;10.95;100.00
72959;BME280;60008;50.826;6.896;2022-12-29T07:47:51;99812.03;;;10.97;100.00
72959;BME280;60008;50.826;6.896;2022-12-29T07:50:36;99816.03;;;10.93;100.00
72959;BME280;60008;50.826;6.896;2022-12-29T07:53:21;99821.31;;;11.07;100.00
72959;BME280;60008;50.826;6.896;2022-12-29T07:56:06;99830.69;;;11.03;100.00
72959;BME280;60008;50.826;6.896;2022-12-29T07:58:52;99832.03;;;10.99;100.00
72959;BME280;60008;50.826;6.896;2022-12-29T08:01:36;99832.88;;;11.00;100.00
72959;BME280;60008;50.826;6.896;2022-12-29T08:04:22;99832.41;;;10.96;100.00
72959;BME280;60008;50.826;6.896;2022-12-29T08:07:08;99841.53;;;11.08;100.00
72959;BME280;60008;50.826;6.896;2022-12-29T08:09:53;99837.22;;;11.07;100.00
72959;BME280;60008;50.826;6.896;2022-12-29T08:12:39;99843.38;;;11.08;100.00
72959;BME280;60008;50.826;6.896;2022-12-29T08:15:24;99837.03;;;11.09;100.00
72959;BME280;60008;50.826;6.896;2022-12-29T08:18:16;99840.25;;;11.04;100.00
72959;BME280;60008;50.826;6.896;2022-12-29T08:21:03;99844.72;;;11.04;100.00
72959;BME280;60008;50.826;6.896;2022-12-29T08:23:48;99850.22;;;11.02;100.00
72959;BME280;60008;50.826;6.896;2022-12-29T08:26:34;99858.28;;;10.94;100.00
72959;BME280;60008;50.826;6.896;2022-12-29T08:29:19;99850.59;;;10.99;100.00
72959;BME280;60008;50.826;6.896;2022-12-29T08:32:06;99856.47;;;10.95;100.00
72959;BME280;60008;50.826;6.896;2022-12-29T08:34:51;99844.94;;;11.02;100.00
72959;BME280;60008;50.826;6.896;2022-12-29T08:37:36;99845.59;;;10.90;100.00
72959;BME280;60008;50.826;6.896;2022-12-29T08:40:21;99847.94;;;10.99;100.00
72959;BME280;60008;50.826;6.896;2022-12-29T08:43:07;99846.28;;;10.98;100.00
72959;BME280;60008;50.826;6.896;2022-12-29T08:45:52;99858.03;;;10.89;100.00
72959;BME280;60008;50.826;6.896;2022-12-29T08:48:38;99860.00;;;10.87;100.00
72959;BME280;60008;50.826;6.896;2022-12-29T08:51:23;99861.59;;;10.82;100.00
72959;BME280;60008;50.826;6.896;2022-12-29T08:54:09;99863.59;;;10.80;100.00
72959;BME280;60008;50.826;6.896;2022-12-29T08:56:54;99864.31;;;11.03;100.00
72959;BME280;60008;50.826;6.896;2022-12-29T08:59:39;99869.31;;;11.12;100.00
72959;BME280;60008;50.826;6.896;2022-12-29T09:02:24;99876.53;;;11.18;100.00
72959;BME280;60008;50.826;6.896;2022-12-29T09:05:09;99884.50;;;11.18;100.00
72959;BME280;60008;50.826;6.896;2022-12-29T09:07:55;99892.56;;;11.10;100.00
72959;BME280;60008;50.826;6.896;2022-12-29T09:10:39;99888.91;;;11.11;100.00
72959;BME280;60008;50.826;6.896;2022-12-29T09:13:25;99893.91;;;11.06;100.00
72959;BME280;60008;50.826;6.896;2022-12-29T09:16:10;99904.09;;;11.03;100.00
72959;BME280;60008;50.826;6.896;2022-12-29T09:18:55;99899.63;;;11.03;100.00
72959;BME280;60008;50.826;6.896;2022-12-29T09:21:40;99910.91;;;11.12;100.00
72959;BME280;60008;50.826;6.896;2022-12-29T09:24:25;99913.88;;;11.17;100.00
72959;BME280;60008;50.826;6.896;2022-12-29T09:27:10;99926.72;;;11.20;100.00
72959;BME280;60008;50.826;6.896;2022-12-29T09:29:56;99928.19;;;11.22;100.00
72959;BME280;60008;50.826;6.896;2022-12-29T09:32:41;99926.38;;;11.23;100.00
72959;BME280;60008;50.826;6.896;2022-12-29T09:35:30;99927.66;;;11.27;100.00
72959;BME280;60008;50.826;6.896;2022-12-29T09:38:15;99920.06;;;11.39;100.00
72959;BME280;60008;50.826;6.896;2022-12-29T09:41:13;99924.97;;;11.42;100.00
72959;BME280;60008;50.826;6.896;2022-12-29T09:44:12;99925.31;;;11.53;100.00
72959;BME280;60008;50.826;6.896;2022-12-29T09:47:02;99929.31;;;11.64;100.00
72959;BME280;60008;50.826;6.896;2022-12-29T09:49:56;99914.38;;;11.77;100.00
72959;BME280;60008;50.826;6.896;2022-12-29T09:52:58;99927.16;;;11.88;100.00
72959;BME280;60008;50.826;6.896;2022-12-29T09:55:49;99925.19;;;11.76;100.00
72959;BME280;60008;50.826;6.896;2022-12-29T09:58:36;99941.69;;;11.57;100.00
72959;BME280;60008;50.826;6.896;2022-12-29T10:01:40;99949.13;;;11.47;100.00
72959;BME280;60008;50.826;6.896;2022-12-29T10:04:27;99942.44;;;11.51;100.00
72959;BME280;60008;50.826;6.896;2022-12-29T10:10:27;99938.47;;;11.61;100.00
72959;BME280;60008;50.826;6.896;2022-12-29T10:13:31;99928.34;;;11.50;100.00
72959;BME280;60008;50.826;6.896;2022-12-29T10:19:57;99934.06;;;12.25;100.00
72959;BME280;60008;50.826;6.896;2022-12-29T10:25:58;99930.88;;;12.15;100.00
72959;BME280;60008;50.826;6.896;2022-12-29T10:28:54;99935.53;;;12.55;99.22
72959;BME280;60008;50.826;6.896;2022-12-29T10:31:50;99933.53;;;12.64;99.81
72959;BME280;60008;50.826;6.896;2022-12-29T10:34:43;99948.25;;;12.60;100.00
72959;BME280;60008;50.826;6.896;2022-12-29T10:43:34;99947.75;;;12.01;100.00
72959;BME280;60008;50.826;6.896;2022-12-29T10:46:32;99937.38;;;12.06;100.00
72959;BME280;60008;50.826;6.896;2022-12-29T10:49:19;99939.00;;;12.07;100.00
72959;BME280;60008;50.826;6.896;2022-12-29T10:52:06;99940.03;;;12.06;100.00
72959;BME280;60008;50.826;6.896;2022-12-29T10:54:59;99948.69;;;12.64;100.00
72959;BME280;60008;50.826;6.896;2022-12-29T10:57:46;99949.69;;;12.63;100.00
72959;BME280;60008;50.826;6.896;2022-12-29T11:00:32;99952.44;;;13.31;98.74
72959;BME280;60008;50.826;6.896;2022-12-29T11:03:50;99941.81;;;12.48;100.00
72959;BME280;60008;50.826;6.896;2022-12-29T11:06:44;99957.78;;;12.76;100.00
72959;BME280;60008;50.826;6.896;2022-12-29T11:09:31;99941.63;;;12.49;99.87
72959;BME280;60008;50.826;6.896;2022-12-29T11:12:30;99947.19;;;12.54;99.62
72959;BME280;60008;50.826;6.896;2022-12-29T11:15:16;99944.31;;;12.77;99.37
72959;BME280;60008;50.826;6.896;2022-12-29T11:18:01;99947.78;;;12.50;99.29
72959;BME280;60008;50.826;6.896;2022-12-29T11:20:46;99955.88;;;12.70;97.16
72959;BME280;60008;50.826;6.896;2022-12-29T11:23:40;99966.75;;;12.47;96.88
72959;BME280;60008;50.826;6.896;2022-12-29T11:26:27;99954.13;;;12.55;97.10
72959;BME280;60008;50.826;6.896;2022-12-29T11:29:28;99968.00;;;12.51;97.66
72959;BME280;60008;50.826;6.896;2022-12-29T11:32:24;99963.28;;;12.46;100.00
72959;BME280;60008;50.826;6.896;2022-12-29T11:35:34;99973.25;;;12.66;100.00
72959;BME280;60008;50.826;6.896;2022-12-29T11:38:26;99964.38;;;12.31;100.00
72959;BME280;60008;50.826;6.896;2022-12-29T11:41:22;99973.69;;;12.48;100.00
72959;BME280;60008;50.826;6.896;2022-12-29T11:44:11;99979.66;;;12.29;100.00
72959;BME280;60008;50.826;6.896;2022-12-29T11:46:57;99991.22;;;12.42;100.00
72959;BME280;60008;50.826;6.896;2022-12-29T11:49:49;99978.31;;;12.39;100.00
72959;BME280;60008;50.826;6.896;2022-12-29T11:52:36;99987.50;;;12.37;100.00
72959;BME280;60008;50.826;6.896;2022-12-29T11:55:25;99977.13;;;12.21;100.00
72959;BME280;60008;50.826;6.896;2022-12-29T11:58:14;99990.75;;;12.11;100.00
72959;BME280;60008;50.826;6.896;2022-12-29T12:01:04;99988.13;;;11.97;100.00
72959;BME280;60008;50.826;6.896;2022-12-29T12:03:58;99991.69;;;12.04;100.00
72959;BME280;60008;50.826;6.896;2022-12-29T12:10:01;99992.53;;;11.89;100.00
72959;BME280;60008;50.826;6.896;2022-12-29T12:12:58;99997.97;;;11.81;100.00
72959;BME280;60008;50.826;6.896;2022-12-29T12:16:00;100005.56;;;11.84;100.00
72959;BME280;60008;50.826;6.896;2022-12-29T12:18:57;100005.94;;;11.81;100.00
72959;BME280;60008;50.826;6.896;2022-12-29T12:21:47;100009.94;;;11.77;100.00
72959;BME280;60008;50.826;6.896;2022-12-29T12:24:49;100022.78;;;11.74;100.00
72959;BME280;60008;50.826;6.896;2022-12-29T12:27:46;100011.16;;;11.75;100.00
72959;BME280;60008;50.826;6.896;2022-12-29T12:30:38;100014.53;;;11.69;100.00
72959;BME280;60008;50.826;6.896;2022-12-29T12:33:36;100013.53;;;11.70;100.00
72959;BME280;60008;50.826;6.896;2022-12-29T12:46:14;100023.16;;;11.71;100.00
72959;BME280;60008;50.826;6.896;2022-12-29T12:52:39;100038.78;;;11.66;100.00
72959;BME280;60008;50.826;6.896;2022-12-29T12:55:52;100028.47;;;11.71;100.00
72959;BME280;60008;50.826;6.896;2022-12-29T12:58:54;100035.41;;;11.57;100.00
72959;BME280;60008;50.826;6.896;2022-12-29T13:02:27;100037.34;;;11.49;100.00
72959;BME280;60008;50.826;6.896;2022-12-29T13:08:48;100037.13;;;11.50;100.00
72959;BME280;60008;50.826;6.896;2022-12-29T13:15:05;100045.66;;;11.46;100.00
72959;BME280;60008;50.826;6.896;2022-12-29T13:18:10;100051.13;;;11.44;100.00
72959;BME280;60008;50.826;6.896;2022-12-29T13:21:15;100056.81;;;11.41;100.00
72959;BME280;60008;50.826;6.896;2022-12-29T13:27:16;100059.00;;;11.38;100.00
72959;BME280;60008;50.826;6.896;2022-12-29T13:30:12;100059.84;;;11.38;100.00
72959;BME280;60008;50.826;6.896;2022-12-29T13:33:30;100059.19;;;11.36;100.00
72959;BME280;60008;50.826;6.896;2022-12-29T13:36:30;100058.53;;;11.34;100.00
72959;BME280;60008;50.826;6.896;2022-12-29T13:39:30;100059.56;;;11.33;100.00
72959;BME280;60008;50.826;6.896;2022-12-29T13:42:18;100061.91;;;11.28;100.00
72959;BME280;60008;50.826;6.896;2022-12-29T13:45:12;100052.97;;;11.29;100.00
72959;BME280;60008;50.826;6.896;2022-12-29T13:48:19;100061.28;;;11.26;100.00
72959;BME280;60008;50.826;6.896;2022-12-29T13:51:08;100061.63;;;11.23;100.00
72959;BME280;60008;50.826;6.896;2022-12-29T13:54:05;100073.91;;;11.24;100.00
72959;BME280;60008;50.826;6.896;2022-12-29T13:57:08;100067.63;;;11.25;100.00
72959;BME280;60008;50.826;6.896;2022-12-29T14:00:00;100079.09;;;11.17;100.00
72959;BME280;60008;50.826;6.896;2022-12-29T14:05:32;100107.34;;;11.10;100.00
72959;BME280;60008;50.826;6.896;2022-12-29T14:08:17;100095.22;;;10.93;100.00
72959;BME280;60008;50.826;6.896;2022-12-29T14:11:14;100102.63;;;10.83;100.00
72959;BME280;60008;50.826;6.896;2022-12-29T14:14:21;100123.41;;;10.71;100.00
72959;BME280;60008;50.826;6.896;2022-12-29T14:17:11;100117.09;;;10.50;100.00
72959;BME280;60008;50.826;6.896;2022-12-29T14:19:59;100130.38;;;10.42;100.00
72959;BME280;60008;50.826;6.896;2022-12-29T14:23:16;100136.56;;;10.34;100.00
72959;BME280;60008;50.826;6.896;2022-12-29T14:28:49;100137.44;;;10.27;100.00
72959;BME280;60008;50.826;6.896;2022-12-29T14:31:35;100140.38;;;10.32;100.00
72959;BME280;60008;50.826;6.896;2022-12-29T14:34:28;100146.81;;;10.37;100.00
72959;BME280;60008;50.826;6.896;2022-12-29T14:40:19;100139.91;;;10.28;100.00
72959;BME280;60008;50.826;6.896;2022-12-29T14:43:24;100139.41;;;10.25;100.00
72959;BME280;60008;50.826;6.896;2022-12-29T14:46:10;100142.78;;;10.19;100.00
72959;BME280;60008;50.826;6.896;2022-12-29T14:48:57;100153.03;;;10.22;100.00
72959;BME280;60008;50.826;6.896;2022-12-29T14:51:44;100150.53;;;10.20;100.00
72959;BME280;60008;50.826;6.896;2022-12-29T14:54:34;100146.09;;;10.12;100.00
72959;BME280;60008;50.826;6.896;2022-12-29T14:57:32;100161.16;;;10.04;100.00
72959;BME280;60008;50.826;6.896;2022-12-29T15:00:22;100151.59;;;9.87;100.00
72959;BME280;60008;50.826;6.896;2022-12-29T15:03:22;100152.69;;;9.70;100.00
72959;BME280;60008;50.826;6.896;2022-12-29T15:06:11;100145.22;;;9.65;100.00
72959;BME280;60008;50.826;6.896;2022-12-29T15:09:04;100146.72;;;9.59;100.00
72959;BME280;60008;50.826;6.896;2022-12-29T15:11:53;100149.22;;;9.53;100.00
72959;BME280;60008;50.826;6.896;2022-12-29T15:14:49;100149.72;;;9.48;100.00
72959;BME280;60008;50.826;6.896;2022-12-29T15:17:34;100157.66;;;9.48;100.00
72959;BME280;60008;50.826;6.896;2022-12-29T15:20:30;100151.56;;;9.40;100.00
72959;BME280;60008;50.826;6.896;2022-12-29T15:23:16;100140.66;;;9.43;100.00
72959;BME280;60008;50.826;6.896;2022-12-29T15:26:05;100146.13;;;9.33;100.00
72959;BME280;60008;50.826;6.896;2022-12-29T15:28:52;100153.56;;;9.22;100.00
72959;BME280;60008;50.826;6.896;2022-12-29T15:31:46;100155.72;;;9.26;100.00
72959;BME280;60008;50.826;6.896;2022-12-29T15:34:31;100157.34;;;9.35;100.00
72959;BME280;60008;50.826;6.896;2022-12-29T15:37:31;100173.91;;;9.29;100.00
72959;BME280;60008;50.826;6.896;2022-12-29T15:40:36;100167.59;;;9.22;100.00
72959;BME280;60008;50.826;6.896;2022-12-29T15:43:30;100165.47;;;9.18;100.00
72959;BME280;60008;50.826;6.896;2022-12-29T15:46:27;100170.44;;;9.13;100.00
72959;BME280;60008;50.826;6.896;2022-12-29T15:49:13;100178.03;;;9.24;100.00
72959;BME280;60008;50.826;6.896;2022-12-29T15:51:59;100173.41;;;9.26;100.00
72959;BME280;60008;50.826;6.896;2022-12-29T15:54:44;100166.63;;;9.31;100.00
72959;BME280;60008;50.826;6.896;2022-12-29T15:57:37;100170.09;;;9.32;100.00